Time;durP1;ratioP1;P1;durP2;ratioP2;P2;SDS_P1;SDS_P2;PMS_P1;PMS_P2;Temp;Humidity;BMP_temperature;BMP_pressure;BME280_temperature;BME280_humidity;BME280_pressure;Samples;Min_cycle;Max_cycle;Signal;HPM_P1;HPM_P2
2021/12/04 00:01:10;;;;;;;5.28;3.22;;;-0.30;95.50;;;;;;5034834;28;19996;-82
2021/12/04 00:03:38;;;;;;;5.30;3.40;;;-0.40;95.40;;;;;;5034794;28;20037;-81
2021/12/04 00:06:09;;;;;;;3.83;3.42;;;-0.40;95.30;;;;;;5035009;28;20029;-80
2021/12/04 00:08:35;;;;;;;5.72;3.63;;;-0.40;95.30;;;;;;5034681;28;20018;-81
2021/12/04 00:11:03;;;;;;;9.70;4.28;;;-0.40;95.30;;;;;;5034608;28;20026;-82
2021/12/04 00:13:28;;;;;;;5.55;2.92;;;-0.50;95.20;;;;;;5034995;28;20376;-81
2021/12/04 00:15:54;;;;;;;5.70;4.07;;;-0.50;95.20;;;;;;5023493;28;20084;-82
2021/12/04 00:18:20;;;;;;;7.07;3.28;;;-0.50;95.20;;;;;;5032413;28;20029;-81
2021/12/04 00:20:46;;;;;;;3.83;2.92;;;-0.50;95.30;;;;;;5034339;28;20073;-81
2021/12/04 00:23:12;;;;;;;4.45;3.22;;;-0.50;95.40;;;;;;5034539;28;20025;-81
2021/12/04 00:25:38;;;;;;;6.40;4.10;;;-0.50;95.40;;;;;;5034225;28;20367;-80
2021/12/04 00:28:05;;;;;;;7.32;3.58;;;-0.60;95.50;;;;;;5034739;28;20132;-79
2021/12/04 00:30:30;;;;;;;4.22;2.78;;;-0.60;95.60;;;;;;5029848;28;20020;-79
2021/12/04 00:33:31;;;;;;;6.68;3.78;;;-0.60;95.60;;;;;;5035202;28;20030;-80
2021/12/04 00:36:00;;;;;;;5.57;3.85;;;-0.70;95.60;;;;;;5019438;28;20033;-78
2021/12/04 00:49:36;;;;;;;4.60;3.58;;;-0.80;95.80;;;;;;4934339;29;20540;-80
2021/12/04 00:52:02;;;;;;;5.75;3.55;;;-0.90;95.80;;;;;;4934971;29;20095;-80
2021/12/04 00:54:28;;;;;;;6.22;3.55;;;-0.90;95.90;;;;;;4980500;28;20072;-79
2021/12/04 00:56:55;;;;;;;5.03;3.20;;;-0.90;96.00;;;;;;5033624;28;20029;-78
2021/12/04 00:59:21;;;;;;;7.03;3.78;;;-0.90;95.90;;;;;;5034031;28;20036;-79
2021/12/04 01:01:47;;;;;;;4.07;3.05;;;-0.90;95.90;;;;;;5033995;28;20029;-81
2021/12/04 01:04:16;;;;;;;4.63;3.22;;;-0.90;95.90;;;;;;5033909;28;20545;-80
2021/12/04 01:06:41;;;;;;;5.47;2.83;;;-0.90;95.90;;;;;;5033954;28;20033;-80
2021/12/04 01:09:11;;;;;;;4.60;2.83;;;-0.90;96.00;;;;;;5033822;28;20029;-81
2021/12/04 01:11:39;;;;;;;3.47;2.75;;;-1.00;95.90;;;;;;5016068;28;20156;-80
2021/12/04 01:14:06;;;;;;;5.05;3.30;;;-1.00;95.90;;;;;;5033621;28;20494;-81
2021/12/04 01:16:32;;;;;;;5.65;3.78;;;-1.10;96.00;;;;;;5033869;28;20028;-80
2021/12/04 01:18:58;;;;;;;5.32;3.60;;;-1.00;96.10;;;;;;5034059;28;20060;-79
2021/12/04 01:21:24;;;;;;;4.38;3.30;;;-1.00;96.20;;;;;;5034092;28;20030;-80
2021/12/04 01:23:49;;;;;;;5.10;4.35;;;-1.00;96.20;;;;;;5033765;28;20025;-78
2021/12/04 01:26:15;;;;;;;4.53;3.20;;;-1.00;96.30;;;;;;5033724;28;20022;-80
2021/12/04 01:28:41;;;;;;;4.40;3.83;;;-1.10;96.30;;;;;;5033699;28;20545;-80
2021/12/04 01:31:07;;;;;;;5.25;3.20;;;-1.10;96.40;;;;;;5033644;28;20048;-80
2021/12/04 01:33:33;;;;;;;6.75;4.15;;;-1.10;96.50;;;;;;5015891;28;20022;-79
2021/12/04 01:35:59;;;;;;;5.00;3.67;;;-1.10;96.50;;;;;;5033420;28;20053;-80
2021/12/04 01:38:24;;;;;;;5.18;3.33;;;-1.20;96.60;;;;;;5033475;28;20475;-81
2021/12/04 01:40:50;;;;;;;3.92;3.08;;;-1.20;96.60;;;;;;5033316;28;20489;-81
2021/12/04 01:43:16;;;;;;;5.97;3.88;;;-1.20;96.60;;;;;;5033697;28;20036;-80
2021/12/04 01:45:42;;;;;;;5.00;3.03;;;-1.20;96.60;;;;;;5033216;28;20096;-80
2021/12/04 01:48:08;;;;;;;4.75;3.35;;;-1.20;96.60;;;;;;5033347;28;20083;-78
2021/12/04 01:50:35;;;;;;;4.82;3.90;;;-1.30;96.60;;;;;;5033474;28;20109;-80
2021/12/04 01:53:02;;;;;;;4.53;3.47;;;-1.30;96.60;;;;;;5032280;28;20017;-80
2021/12/04 01:55:30;;;;;;;4.55;3.50;;;-1.30;96.70;;;;;;5033071;28;20232;-79
2021/12/04 01:57:57;;;;;;;5.55;3.38;;;-1.20;96.70;;;;;;5032199;28;20029;-80
2021/12/04 02:00:23;;;;;;;7.75;3.40;;;-1.30;96.70;;;;;;5015216;28;20026;-79
2021/12/04 02:02:49;;;;;;;5.45;3.33;;;-1.30;96.70;;;;;;5033879;28;20026;-79
2021/12/04 02:05:14;;;;;;;4.28;3.83;;;-1.30;96.70;;;;;;5034026;28;20108;-81
2021/12/04 02:07:40;;;;;;;4.88;3.13;;;-1.30;96.70;;;;;;5033118;28;20079;-79
2021/12/04 02:10:07;;;;;;;4.97;3.40;;;-1.30;96.60;;;;;;5032947;28;20505;-78
2021/12/04 02:12:33;;;;;;;5.68;3.22;;;-1.30;96.60;;;;;;5032871;28;20021;-79
2021/12/04 02:14:59;;;;;;;4.07;3.17;;;-1.40;96.60;;;;;;5028194;28;20060;-79
2021/12/04 02:17:26;;;;;;;6.55;3.58;;;-1.40;96.60;;;;;;5013078;28;20030;-78
2021/12/04 02:19:52;;;;;;;3.60;3.20;;;-1.40;96.70;;;;;;5013250;28;20037;-79
2021/12/04 02:22:17;;;;;;;7.45;3.35;;;-1.40;96.70;;;;;;5013071;28;20391;-78
2021/12/04 02:24:43;;;;;;;5.55;3.33;;;-1.40;96.80;;;;;;5013143;28;20611;-81
2021/12/04 02:27:12;;;;;;;5.88;3.78;;;-1.40;96.70;;;;;;5015001;28;20476;-79
2021/12/04 02:29:46;;;;;;;5.15;3.78;;;-1.30;96.70;;;;;;5013140;28;20033;-80
2021/12/04 02:32:12;;;;;;;5.07;3.45;;;-1.30;96.60;;;;;;5013074;28;20542;-80
2021/12/04 02:34:38;;;;;;;5.22;3.28;;;-1.40;96.50;;;;;;5013319;28;20037;-80
2021/12/04 02:37:06;;;;;;;6.28;3.85;;;-1.40;96.80;;;;;;5013284;28;20030;-79
2021/12/04 02:39:34;;;;;;;;;;;-1.40;96.50;;;;;;5013271;28;20034;-77
2021/12/04 02:42:01;;;;;;;3.90;3.20;;;-1.50;96.50;;;;;;5012909;28;19905;-79
2021/12/04 02:44:39;;;;;;;4.70;3.47;;;-1.50;96.60;;;;;;5012818;28;20029;-79
2021/12/04 02:47:05;;;;;;;;;;;-1.50;96.70;;;;;;5013418;28;20208;-79
2021/12/04 02:49:31;;;;;;;6.22;3.65;;;-1.50;96.80;;;;;;5013027;28;19959;-78
2021/12/04 02:52:04;;;;;;;6.15;3.72;;;-1.60;96.80;;;;;;5012788;28;20097;-80
2021/12/04 02:54:31;;;;;;;4.20;3.63;;;-1.60;96.90;;;;;;5012838;28;20025;-78
2021/12/04 02:56:57;;;;;;;7.27;3.90;;;-1.60;96.90;;;;;;5010625;28;20036;-80
2021/12/04 02:59:23;;;;;;;5.53;4.55;;;-1.60;96.90;;;;;;5012632;28;20287;-80
2021/12/04 03:01:52;;;;;;;6.18;4.32;;;-1.60;97.00;;;;;;5013118;28;20491;-79
2021/12/04 03:04:19;;;;;;;8.98;4.70;;;-1.60;97.00;;;;;;5015504;28;20412;-79
2021/12/04 03:06:47;;;;;;;6.60;3.90;;;-1.60;97.00;;;;;;5016430;28;20052;-78
2021/12/04 03:09:14;;;;;;;5.00;3.92;;;-1.70;97.00;;;;;;5016363;28;20525;-79
2021/12/04 03:11:40;;;;;;;8.37;3.77;;;-1.70;97.10;;;;;;5016785;28;20018;-79
2021/12/04 03:14:06;;;;;;;5.45;3.95;;;-1.70;97.10;;;;;;5014817;28;20045;-80
2021/12/04 03:16:33;;;;;;;5.85;3.80;;;-1.70;97.10;;;;;;5014898;28;20037;-78
2021/12/04 03:18:59;;;;;;;8.30;4.13;;;-1.80;97.10;;;;;;5016052;28;20032;-78
2021/12/04 03:21:26;;;;;;;8.55;3.90;;;-1.80;97.20;;;;;;5015061;28;20025;-77
2021/12/04 03:23:58;;;;;;;6.53;3.78;;;-1.80;97.20;;;;;;5001085;28;20077;-78
2021/12/04 03:26:25;;;;;;;7.22;4.57;;;-1.70;97.20;;;;;;4996904;28;20026;-78
2021/12/04 03:28:52;;;;;;;6.30;4.22;;;-1.80;97.10;;;;;;4997202;28;20088;-77
2021/12/04 03:42:01;;;;;;;7.65;3.83;;;-1.80;96.90;;;;;;4996698;28;20088;-79
2021/12/04 03:44:30;;;;;;;8.38;3.92;;;-1.80;96.90;;;;;;4996387;28;20042;-79
2021/12/04 03:46:56;;;;;;;4.47;3.42;;;-1.80;96.90;;;;;;4995249;28;20083;-79
2021/12/04 03:49:22;;;;;;;4.90;2.95;;;-1.80;96.90;;;;;;4996232;28;20105;-80
2021/12/04 03:51:49;;;;;;;7.75;3.50;;;-1.70;96.80;;;;;;4996183;28;20026;-79
2021/12/04 03:54:15;;;;;;;5.60;3.72;;;-1.70;96.80;;;;;;5015044;28;20475;-79
2021/12/04 03:56:40;;;;;;;4.60;2.97;;;-1.60;96.70;;;;;;5015598;28;20040;-80
2021/12/04 03:59:06;;;;;;;3.55;2.88;;;-1.50;96.70;;;;;;5015407;28;20038;-80
2021/12/04 04:01:32;;;;;;;5.80;3.90;;;-1.50;96.50;;;;;;5014096;28;20109;-80
2021/12/04 04:03:57;;;;;;;4.93;3.33;;;-1.40;96.40;;;;;;5015808;28;20030;-79
2021/12/04 04:06:23;;;;;;;5.03;3.10;;;-1.30;96.40;;;;;;5015174;28;20134;-80
2021/12/04 04:08:49;;;;;;;5.63;3.45;;;-1.30;96.30;;;;;;5015507;28;20050;-78
2021/12/04 04:11:15;;;;;;;5.32;3.35;;;-1.20;96.10;;;;;;5015414;28;20025;-79
2021/12/04 04:13:43;;;;;;;7.22;5.38;;;-1.20;95.80;;;;;;5013780;28;20054;-79
2021/12/04 04:16:10;;;;;;;4.47;3.20;;;-1.20;95.70;;;;;;5014087;28;20068;-79
2021/12/04 04:18:36;;;;;;;4.53;3.28;;;-1.20;95.70;;;;;;5015403;28;20380;-80
2021/12/04 04:21:02;;;;;;;6.15;3.10;;;-1.10;95.70;;;;;;5015023;28;20084;-80
2021/12/04 04:23:28;;;;;;;6.03;3.55;;;-1.10;95.70;;;;;;5015180;28;20049;-79
2021/12/04 04:25:54;;;;;;;3.05;2.70;;;-1.00;95.60;;;;;;5016009;28;20099;-79
2021/12/04 04:28:20;;;;;;;5.28;3.42;;;-1.00;95.50;;;;;;5016634;28;20084;-79
2021/12/04 04:30:46;;;;;;;7.60;4.18;;;-1.00;95.40;;;;;;5015545;28;20026;-79
2021/12/04 04:33:14;;;;;;;5.03;3.80;;;-0.90;95.40;;;;;;5015144;28;20041;-81
2021/12/04 04:35:46;;;;;;;3.72;2.90;;;-0.90;95.40;;;;;;5014562;28;20017;-82
2021/12/04 05:13:17;;;;;;;3.28;2.65;;;-1.30;94.80;;;;;;5015371;28;20394;-80
2021/12/04 05:18:32;;;;;;;5.93;3.22;;;-1.30;94.90;;;;;;5033877;28;20029;-79
2021/12/04 05:21:06;;;;;;;4.13;3.38;;;-1.30;94.90;;;;;;5033445;28;20025;-79
2021/12/04 05:23:38;;;;;;;8.57;3.42;;;-1.40;94.80;;;;;;5033583;28;20022;-80
2021/12/04 05:26:05;;;;;;;6.38;3.08;;;-1.40;94.80;;;;;;5015840;28;20094;-81
2021/12/04 05:28:31;;;;;;;;;;;-1.40;94.90;;;;;;5033958;28;20076;-80
2021/12/04 05:30:58;;;;;;;8.63;3.10;;;-1.30;95.00;;;;;;5032893;28;19940;-80
2021/12/04 05:33:24;;;;;;;5.20;3.63;;;-1.30;95.00;;;;;;5033522;28;20052;-80
2021/12/04 05:35:50;;;;;;;6.13;3.08;;;-1.20;95.00;;;;;;5034270;28;20049;-81
2021/12/04 05:38:17;;;;;;;4.68;3.53;;;-1.10;95.10;;;;;;5033948;28;20167;-80
2021/12/04 05:40:44;;;;;;;5.13;3.42;;;-1.10;94.90;;;;;;5038636;28;20032;-80
2021/12/04 05:43:11;;;;;;;4.70;3.50;;;-1.00;95.00;;;;;;5042611;28;20076;-80
2021/12/04 05:45:41;;;;;;;4.68;2.53;;;-1.00;94.90;;;;;;5019372;28;20033;-78
2021/12/04 05:48:19;;;;;;;7.95;3.70;;;-0.90;95.00;;;;;;5033180;28;20372;-80
2021/12/04 05:53:18;;;;;;;5.32;3.40;;;-0.90;94.70;;;;;;5033110;28;20047;-80
2021/12/04 05:55:54;;;;;;;4.75;3.53;;;-0.90;94.80;;;;;;5033120;28;20437;-81
2021/12/04 05:58:23;;;;;;;6.40;3.25;;;-0.90;94.60;;;;;;5033064;28;20025;-82
2021/12/04 06:00:49;;;;;;;5.10;3.33;;;-0.80;94.60;;;;;;5032881;28;20022;-81
2021/12/04 06:03:15;;;;;;;7.70;4.10;;;-0.90;94.50;;;;;;5033345;28;20130;-80
2021/12/04 06:05:41;;;;;;;5.95;3.65;;;-0.90;94.60;;;;;;5033836;28;20079;-80
2021/12/04 06:08:07;;;;;;;4.07;2.97;;;-0.80;94.60;;;;;;5017007;28;20038;-80
2021/12/04 06:10:32;;;;;;;3.83;2.63;;;-0.80;94.50;;;;;;5038278;28;20056;-80
2021/12/04 06:12:58;;;;;;;4.88;3.03;;;-0.80;94.40;;;;;;5034467;28;20026;-79
2021/12/04 06:15:24;;;;;;;5.60;2.75;;;-0.80;94.40;;;;;;5033468;28;20499;-81
2021/12/04 06:17:52;;;;;;;5.88;3.33;;;-0.90;94.80;;;;;;5032634;28;20037;-80
2021/12/04 06:23:03;;;;;;;5.80;3.35;;;-0.80;94.50;;;;;;5032930;28;20523;-79
2021/12/04 06:25:28;;;;;;;3.13;2.33;;;-0.90;94.50;;;;;;5031976;28;20025;-81
2021/12/04 06:27:55;;;;;;;5.57;3.47;;;-0.90;94.60;;;;;;5031620;28;20048;-81
2021/12/04 06:30:22;;;;;;;4.50;3.35;;;-0.90;94.80;;;;;;5031358;28;20024;-79
2021/12/04 06:32:50;;;;;;;6.95;4.53;;;-0.90;94.90;;;;;;5032220;28;20030;-80
2021/12/04 06:35:16;;;;;;;;;;;-0.90;95.00;;;;;;5032439;28;20482;-82
2021/12/04 06:37:42;;;;;;;5.67;3.37;;;-1.00;95.00;;;;;;5032183;28;19940;-81
2021/12/04 06:40:11;;;;;;;6.47;3.55;;;-1.10;95.00;;;;;;5036260;28;20325;-82
2021/12/04 06:42:38;;;;;;;5.70;3.90;;;-1.00;95.20;;;;;;5016606;28;20096;-79
2021/12/04 06:45:06;;;;;;;4.43;3.37;;;-1.00;95.30;;;;;;5035611;28;20478;-79
2021/12/04 06:47:32;;;;;;;;;;;-1.00;95.40;;;;;;5036536;28;20132;-81
2021/12/04 06:50:05;;;;;;;5.18;3.30;;;-0.90;95.40;;;;;;5036324;28;19905;-79
2021/12/04 06:52:31;;;;;;;4.75;3.30;;;-0.90;95.40;;;;;;5036999;28;20033;-80
2021/12/04 06:54:59;;;;;;;5.63;3.40;;;-0.90;95.50;;;;;;5036464;28;20100;-80
2021/12/04 06:57:25;;;;;;;3.92;2.75;;;-0.90;95.50;;;;;;5036181;28;20076;-79
2021/12/04 06:59:53;;;;;;;4.95;3.60;;;-0.90;95.50;;;;;;5035907;28;20069;-79
2021/12/04 07:02:20;;;;;;;4.47;2.92;;;-0.90;95.50;;;;;;5035787;28;20032;-80
2021/12/04 07:04:46;;;;;;;4.97;3.95;;;-0.90;95.60;;;;;;5017952;28;20013;-79
2021/12/04 07:07:13;;;;;;;4.63;3.17;;;-0.90;95.60;;;;;;5035972;28;20037;-81
2021/12/04 07:09:40;;;;;;;5.32;3.58;;;-1.00;95.70;;;;;;5034894;28;20013;-78
2021/12/04 07:12:06;;;;;;;6.20;3.57;;;-0.90;95.90;;;;;;5036323;28;20037;-80
2021/12/04 07:14:32;;;;;;;4.32;2.80;;;-1.00;95.80;;;;;;5017358;28;20334;-81
2021/12/04 07:17:01;;;;;;;5.43;3.00;;;-1.00;95.70;;;;;;5035804;28;20025;-81
2021/12/04 07:19:27;;;;;;;6.50;3.88;;;-1.00;95.30;;;;;;5035117;28;20033;-82
2021/12/04 07:21:53;;;;;;;3.85;3.45;;;-1.10;95.30;;;;;;5020360;28;20509;-80
2021/12/04 07:24:19;;;;;;;7.20;3.38;;;-0.90;95.30;;;;;;5017212;28;20053;-81
2021/12/04 07:26:45;;;;;;;6.25;3.40;;;-0.90;94.80;;;;;;5033810;28;20079;-80
2021/12/04 07:29:11;;;;;;;5.45;3.53;;;-1.00;94.40;;;;;;5034898;28;20021;-81
2021/12/04 07:31:39;;;;;;;3.65;3.30;;;-0.90;94.40;;;;;;5034856;28;20486;-80
2021/12/04 07:34:06;;;;;;;8.95;3.15;;;-1.00;94.10;;;;;;5034808;28;20515;-80
2021/12/04 07:36:32;;;;;;;4.85;2.45;;;-1.00;94.00;;;;;;5035375;28;20398;-81
2021/12/04 07:39:01;;;;;;;3.67;3.13;;;-1.00;93.80;;;;;;5034831;28;20126;-80
2021/12/04 07:41:28;;;;;;;4.40;3.25;;;-1.10;93.80;;;;;;5034845;28;20068;-81
2021/12/04 07:43:54;;;;;;;4.78;3.83;;;-1.00;93.90;;;;;;5034844;28;20033;-79
2021/12/04 07:46:20;;;;;;;6.78;3.67;;;-1.00;94.00;;;;;;5035348;28;20021;-79
2021/12/04 07:48:46;;;;;;;3.85;2.60;;;-0.90;93.90;;;;;;5035906;28;20117;-78
2021/12/04 07:51:25;;;;;;;3.50;2.13;;;-0.90;93.60;;;;;;5039149;28;20021;-81
2021/12/04 07:53:51;;;;;;;2.13;1.85;;;-0.90;92.80;;;;;;5039381;28;20112;-80
2021/12/04 07:56:17;;;;;;;3.13;2.30;;;-0.90;91.80;;;;;;5020203;28;20107;-80
2021/12/04 07:58:45;;;;;;;2.78;2.00;;;-1.10;90.80;;;;;;5034307;28;20122;-79
2021/12/04 08:01:12;;;;;;;2.33;1.63;;;-1.10;90.50;;;;;;5035216;28;20022;-81
2021/12/04 08:03:38;;;;;;;3.13;2.47;;;-1.20;90.40;;;;;;5034220;28;20029;-81
2021/12/04 08:06:05;;;;;;;2.60;2.17;;;-1.10;90.00;;;;;;5034805;28;20487;-81
2021/12/04 08:08:31;;;;;;;3.58;2.47;;;-1.00;89.60;;;;;;5035061;28;20085;-79
2021/12/04 08:10:57;;;;;;;3.70;2.20;;;-1.00;90.00;;;;;;5035029;28;20068;-84
2021/12/04 08:13:22;;;;;;;3.33;1.55;;;-1.00;88.20;;;;;;5033841;28;20040;-81
2021/12/04 08:15:49;;;;;;;2.10;1.70;;;-1.00;88.50;;;;;;5036595;28;20101;-80
2021/12/04 08:18:14;;;;;;;3.53;2.20;;;-1.00;87.90;;;;;;5038915;28;20025;-81
2021/12/04 08:20:40;;;;;;;1.92;1.83;;;-1.00;87.40;;;;;;5016996;28;20108;-82
2021/12/04 08:23:07;;;;;;;4.15;2.10;;;-0.90;87.50;;;;;;5035029;28;20021;-82
2021/12/04 08:25:33;;;;;;;2.17;1.55;;;-0.80;87.00;;;;;;5034780;28;20029;-81
2021/12/04 08:28:01;;;;;;;4.10;2.05;;;-0.80;86.20;;;;;;5035053;28;20018;-82
2021/12/04 08:30:29;;;;;;;3.80;1.90;;;-0.70;86.20;;;;;;5017456;28;20068;-80
2021/12/04 08:32:56;;;;;;;2.10;1.63;;;-0.50;86.10;;;;;;5035000;28;20025;-78
2021/12/04 08:35:24;;;;;;;4.22;2.05;;;-0.40;85.30;;;;;;5034338;28;20433;-80
2021/12/04 08:37:52;;;;;;;3.17;2.72;;;-0.40;83.80;;;;;;5034725;28;20022;-81
2021/12/04 08:40:18;;;;;;;2.83;1.90;;;-0.40;83.60;;;;;;5034320;28;20030;-80
2021/12/04 08:42:45;;;;;;;3.15;2.38;;;-0.50;83.30;;;;;;5034529;28;20040;-80
2021/12/04 08:45:12;;;;;;;;;;;-0.60;83.10;;;;;;5035352;28;20021;-81
2021/12/04 08:47:38;;;;;;;3.40;2.13;;;-0.60;84.10;;;;;;5035108;28;19947;-80
2021/12/04 08:50:07;;;;;;;2.97;1.55;;;-0.40;84.10;;;;;;5034249;28;20445;-81
2021/12/04 08:52:32;;;;;;;3.10;2.38;;;-0.30;82.50;;;;;;5016519;28;20537;-81
2021/12/04 08:54:58;;;;;;;2.03;1.42;;;-0.20;82.40;;;;;;5034272;28;20026;-80
2021/12/04 08:57:24;;;;;;;3.28;2.05;;;-0.30;80.20;;;;;;5016372;28;20428;-79
2021/12/04 08:59:52;;;;;;;2.33;1.80;;;-0.40;80.90;;;;;;5034176;28;20098;-81
2021/12/04 09:02:17;;;;;;;;;;;-0.40;81.10;;;;;;5033861;28;20143;-80
2021/12/04 09:04:46;;;;;;;4.05;2.05;;;-0.50;81.60;;;;;;5017512;28;19909;-79
2021/12/04 09:07:13;;;;;;;3.47;1.58;;;-0.80;80.70;;;;;;5032216;28;20025;-80
2021/12/04 09:09:39;;;;;;;4.40;1.63;;;-1.00;81.40;;;;;;5033625;28;20021;-81
2021/12/04 09:12:09;;;;;;;4.90;2.28;;;-1.10;81.60;;;;;;5033940;28;20036;-80
2021/12/04 09:14:37;;;;;;;3.35;2.10;;;-1.30;82.10;;;;;;5015774;28;20132;-79
2021/12/04 09:17:07;;;;;;;2.88;2.15;;;-1.30;82.50;;;;;;5034888;28;20082;-82
2021/12/04 09:19:33;;;;;;;1.70;1.35;;;-1.20;83.20;;;;;;5033920;28;20041;-79
2021/12/04 09:22:00;;;;;;;4.28;2.08;;;-1.10;82.90;;;;;;5033445;28;20104;-80
2021/12/04 09:24:38;;;;;;;2.38;1.77;;;-1.10;82.30;;;;;;5033443;28;20028;-79
2021/12/04 09:32:31;;;;;;;3.65;2.83;;;-0.80;82.90;;;;;;5033182;28;20030;-80
2021/12/04 10:02:13;;;;;;;2.13;1.63;;;-0.50;79.80;;;;;;5034035;28;20101;-80
2021/12/04 10:32:41;;;;;;;2.53;1.40;;;-0.70;77.10;;;;;;4996002;28;20038;-83
2021/12/04 10:35:11;;;;;;;2.72;1.88;;;-0.70;77.50;;;;;;5017716;28;20501;-81
2021/12/04 10:38:01;;;;;;;3.28;2.05;;;-0.70;77.70;;;;;;5015611;28;20029;-83
2021/12/04 10:40:39;;;;;;;5.93;1.90;;;-0.70;78.00;;;;;;5032294;28;20491;-83
2021/12/04 10:43:11;;;;;;;2.45;1.70;;;-0.70;78.30;;;;;;5032927;28;20017;-81
2021/12/04 10:45:39;;;;;;;3.58;1.90;;;-0.70;77.60;;;;;;5033579;28;20481;-81
2021/12/04 10:48:11;;;;;;;2.40;1.60;;;-0.70;78.10;;;;;;5033755;28;20033;-82
2021/12/04 10:51:03;;;;;;;2.45;1.67;;;-0.70;78.50;;;;;;5036867;28;20025;-83
2021/12/04 10:53:34;;;;;;;2.08;1.60;;;-0.70;78.80;;;;;;5033187;28;20029;-81
2021/12/04 11:01:40;;;;;;;5.05;2.50;;;-1.00;79.90;;;;;;5033225;28;20036;-83
2021/12/04 11:27:23;;;;;;;3.22;2.13;;;-1.20;82.50;;;;;;5036680;28;20064;-79
2021/12/04 11:41:56;;;;;;;2.38;1.80;;;-1.30;82.70;;;;;;4966346;28;20051;-80
2021/12/04 11:44:28;;;;;;;2.00;1.73;;;-1.30;82.10;;;;;;5036270;28;20021;-81
2021/12/04 11:46:59;;;;;;;5.03;1.83;;;-1.40;81.90;;;;;;5035776;28;20032;-80
2021/12/04 11:49:32;;;;;;;5.25;1.70;;;-1.40;81.30;;;;;;5035571;28;20028;-81
2021/12/04 11:52:07;;;;;;;1.92;1.55;;;-1.40;80.70;;;;;;5035961;28;20030;-81
2021/12/04 11:54:46;;;;;;;1.55;1.42;;;-1.40;80.10;;;;;;5035800;28;20025;-80
2021/12/04 11:57:15;;;;;;;1.90;1.52;;;-1.50;79.20;;;;;;5035565;28;20100;-82
2021/12/04 11:59:47;;;;;;;4.97;1.88;;;-1.50;79.10;;;;;;5017521;28;20034;-82
2021/12/04 12:02:23;;;;;;;4.65;2.42;;;-1.50;78.70;;;;;;5017394;28;20505;-80
2021/12/04 12:04:57;;;;;;;3.75;1.40;;;-1.60;77.30;;;;;;5040271;28;20025;-82
2021/12/04 12:07:27;;;;;;;4.40;2.63;;;-1.60;77.30;;;;;;5042789;28;20026;-81
2021/12/04 12:10:07;;;;;;;2.20;1.40;;;-1.70;77.30;;;;;;5036092;28;20044;-81
2021/12/04 12:12:38;;;;;;;6.45;2.92;;;-1.70;76.70;;;;;;5037692;28;20491;-79
2021/12/04 12:15:30;;;;;;;2.47;1.52;;;-1.80;76.80;;;;;;5036772;28;20045;-80
2021/12/04 12:18:08;;;;;;;1.80;1.33;;;-1.80;77.30;;;;;;5035536;28;20017;-81
2021/12/04 12:20:42;;;;;;;2.50;1.58;;;-1.80;77.80;;;;;;5034514;28;20040;-78
2021/12/04 12:23:18;;;;;;;4.25;1.52;;;-1.80;78.00;;;;;;5034833;28;20374;-80
2021/12/04 12:37:21;;;;;;;3.78;1.80;;;-1.90;78.30;;;;;;5033997;28;20029;-81
2021/12/04 12:39:53;;;;;;;2.60;1.80;;;-1.90;78.20;;;;;;5034506;28;20080;-82
2021/12/04 12:42:24;;;;;;;2.92;1.75;;;-1.90;78.50;;;;;;4997351;28;20018;-82
2021/12/04 12:44:50;;;;;;;1.65;1.50;;;-1.90;78.50;;;;;;4997249;28;20116;-84
2021/12/04 12:47:18;;;;;;;1.95;1.75;;;-1.90;78.30;;;;;;5014746;28;20037;-84
2021/12/04 12:49:46;;;;;;;5.10;2.00;;;-1.90;78.30;;;;;;5022741;28;20417;-80
2021/12/04 12:52:19;;;;;;;;;;;-1.90;78.60;;;;;;5016734;28;20491;-80
2021/12/04 12:54:53;;;;;;;3.08;1.80;;;-1.90;78.70;;;;;;5034158;28;19905;-80
2021/12/04 12:57:28;;;;;;;3.10;1.63;;;-2.00;78.20;;;;;;5034036;28;20036;-80
2021/12/04 13:12:08;;;;;;;2.67;1.67;;;-2.20;78.00;;;;;;5034028;28;20042;-81
2021/12/04 13:14:40;;;;;;;3.22;1.67;;;-2.10;78.20;;;;;;5015280;28;20049;-81
2021/12/04 13:17:09;;;;;;;3.25;1.83;;;-2.10;78.50;;;;;;5033589;28;20025;-81
2021/12/04 13:19:38;;;;;;;2.47;1.48;;;-2.10;78.00;;;;;;5033394;28;20033;-80
2021/12/04 13:22:19;;;;;;;3.92;1.95;;;-2.20;78.00;;;;;;5022766;28;20510;-84
2021/12/04 13:24:48;;;;;;;7.20;3.15;;;-2.20;78.60;;;;;;5013788;28;20491;-82
2021/12/04 13:29:44;;;;;;;1.77;1.60;;;-2.10;78.80;;;;;;5013504;28;20060;-81
2021/12/04 13:32:13;;;;;;;2.88;2.20;;;-2.10;79.10;;;;;;5013493;28;20440;-80
2021/12/04 13:34:40;;;;;;;3.63;1.80;;;-2.00;79.20;;;;;;5013444;28;20024;-81
2021/12/04 13:37:07;;;;;;;2.75;1.67;;;-2.00;79.20;;;;;;5019668;28;20411;-80
2021/12/04 13:39:34;;;;;;;2.45;1.67;;;-2.10;78.50;;;;;;5031361;28;20033;-80
2021/12/04 13:42:01;;;;;;;2.60;1.90;;;-2.10;78.30;;;;;;5033136;28;20124;-78
2021/12/04 13:44:29;;;;;;;2.92;2.10;;;-2.10;78.70;;;;;;5032246;28;20037;-78
2021/12/04 13:47:03;;;;;;;2.70;1.70;;;-2.00;78.90;;;;;;5033656;28;20053;-79
2021/12/04 13:49:47;;;;;;;2.72;1.63;;;-2.00;78.50;;;;;;5030092;28;20025;-78
2021/12/04 13:52:16;;;;;;;5.65;2.47;;;-2.00;78.30;;;;;;5033414;28;20021;-80
2021/12/04 13:54:50;;;;;;;2.45;1.40;;;-2.00;77.90;;;;;;5027460;28;20327;-80
2021/12/04 13:57:16;;;;;;;2.00;1.75;;;-2.00;78.20;;;;;;5030414;28;20025;-82
2021/12/04 13:59:43;;;;;;;3.63;2.20;;;-2.00;78.00;;;;;;5015598;28;20125;-81
2021/12/04 14:02:24;;;;;;;3.13;1.73;;;-2.00;77.90;;;;;;5032521;28;20410;-80
2021/12/04 14:05:12;;;;;;;1.88;1.55;;;-2.00;77.60;;;;;;5033341;28;20033;-82
2021/12/04 14:07:47;;;;;;;4.35;2.22;;;-2.00;77.80;;;;;;5034529;28;20021;-80
2021/12/04 14:10:17;;;;;;;1.77;1.33;;;-2.00;77.30;;;;;;5014230;28;20048;-81
2021/12/04 14:12:43;;;;;;;3.17;1.77;;;-2.10;76.80;;;;;;5017609;28;20489;-82
2021/12/04 14:15:11;;;;;;;3.42;2.05;;;-2.10;77.20;;;;;;5034348;28;20045;-81
2021/12/04 14:17:38;;;;;;;4.18;2.05;;;-2.10;77.60;;;;;;5033171;28;20124;-82
2021/12/04 14:20:07;;;;;;;2.38;1.77;;;-2.10;78.00;;;;;;5021913;28;20037;-83
2021/12/04 14:22:33;;;;;;;3.33;2.40;;;-2.00;78.30;;;;;;5017128;28;20025;-80
2021/12/04 14:25:02;;;;;;;4.75;2.63;;;-1.90;78.30;;;;;;5025585;28;20032;-84
2021/12/04 14:27:35;;;;;;;2.65;1.60;;;-1.90;78.00;;;;;;5024970;28;20079;-81
2021/12/04 14:30:19;;;;;;;2.38;2.08;;;-1.90;78.00;;;;;;5034240;28;20030;-81
2021/12/04 14:32:52;;;;;;;2.72;1.88;;;-1.90;77.80;;;;;;5034118;28;20056;-81
2021/12/04 14:35:20;;;;;;;2.25;1.88;;;-1.90;77.70;;;;;;5033353;28;20561;-81
2021/12/04 14:37:50;;;;;;;;;;;-1.90;78.00;;;;;;5015743;28;20112;-83
2021/12/04 14:40:19;;;;;;;3.20;2.40;;;-1.90;78.00;;;;;;5033199;28;20345;-81
2021/12/04 14:42:46;;;;;;;3.90;2.55;;;-2.00;77.90;;;;;;5015166;28;20025;-81
2021/12/04 14:45:17;;;;;;;3.72;2.72;;;-2.00;78.50;;;;;;5032760;28;20075;-81
2021/12/04 14:48:02;;;;;;;3.05;2.25;;;-2.00;78.70;;;;;;5015053;28;20029;-82
2021/12/04 14:50:29;;;;;;;3.60;2.80;;;-2.00;78.90;;;;;;5032464;28;20029;-81
2021/12/04 14:53:02;;;;;;;2.85;2.47;;;-1.90;79.00;;;;;;5032585;28;20068;-81
2021/12/04 14:55:34;;;;;;;5.13;3.20;;;-1.90;78.90;;;;;;5032407;28;20022;-82
2021/12/04 14:58:04;;;;;;;7.38;4.55;;;-1.90;78.30;;;;;;5014952;28;20029;-81
2021/12/04 15:00:38;;;;;;;9.73;5.65;;;-2.00;78.00;;;;;;5035311;28;20077;-82
2021/12/04 15:03:10;;;;;;;4.55;3.35;;;-2.00;78.20;;;;;;5019494;28;20387;-81
2021/12/04 15:05:41;;;;;;;2.83;1.95;;;-2.00;78.30;;;;;;5038284;28;20116;-84
2021/12/04 15:08:10;;;;;;;2.75;1.85;;;-2.00;77.90;;;;;;5036625;28;20379;-81
2021/12/04 15:10:37;;;;;;;4.03;3.00;;;-2.00;77.60;;;;;;5036113;28;20360;-81
2021/12/04 15:13:06;;;;;;;2.75;2.42;;;-2.00;77.70;;;;;;5036891;28;20028;-80
2021/12/04 15:15:36;;;;;;;2.92;2.22;;;-2.00;78.50;;;;;;5036124;28;20032;-79
2021/12/04 15:18:09;;;;;;;1.92;1.73;;;-2.00;77.80;;;;;;5036529;28;20117;-82
2021/12/04 15:20:45;;;;;;;6.60;2.88;;;-2.10;77.70;;;;;;5035996;28;20032;-80
2021/12/04 15:23:16;;;;;;;8.65;4.95;;;-2.00;78.20;;;;;;5036317;28;20021;-81
2021/12/04 15:25:45;;;;;;;6.93;2.97;;;-2.00;78.30;;;;;;5035836;28;20021;-83
2021/12/04 15:28:16;;;;;;;3.88;3.03;;;-2.00;78.50;;;;;;5035577;28;20183;-82
2021/12/04 15:30:45;;;;;;;2.72;1.73;;;-1.90;78.30;;;;;;5035902;28;20483;-84
2021/12/04 15:33:35;;;;;;;4.90;2.92;;;-2.00;77.00;;;;;;5035670;28;20030;-81
2021/12/04 15:36:03;;;;;;;5.13;2.15;;;-2.00;77.60;;;;;;5035415;28;20109;-81
2021/12/04 15:38:40;;;;;;;5.28;2.85;;;-2.10;77.60;;;;;;5035717;28;20471;-83
2021/12/04 15:49:48;;;;;;;5.40;2.90;;;-2.00;78.20;;;;;;5035625;28;20040;-80
2021/12/04 15:55:11;;;;;;;3.78;2.35;;;-2.00;77.90;;;;;;5035569;28;20040;-81
2021/12/04 15:57:38;;;;;;;3.17;2.05;;;-2.10;78.00;;;;;;5035709;28;20430;-82
2021/12/04 16:00:16;;;;;;;4.33;2.07;;;-2.10;77.90;;;;;;5035290;28;20124;-82
2021/12/04 16:02:44;;;;;;;;;;;-2.10;78.00;;;;;;5035886;28;20247;-81
2021/12/04 16:05:18;;;;;;;2.35;2.10;;;-2.10;78.30;;;;;;5035747;28;19912;-81
2021/12/04 16:07:52;;;;;;;2.28;1.88;;;-2.10;78.20;;;;;;5035841;28;20091;-84
2021/12/04 16:10:21;;;;;;;2.55;1.83;;;-2.10;78.30;;;;;;5017787;28;20496;-77
2021/12/04 16:12:54;;;;;;;3.70;2.28;;;-2.10;78.10;;;;;;5035487;28;20100;-81
2021/12/04 16:15:22;;;;;;;3.55;2.45;;;-2.10;78.40;;;;;;5035420;28;20052;-86
2021/12/04 16:17:49;;;;;;;2.90;2.53;;;-2.00;78.30;;;;;;5017511;28;20032;-87
2021/12/04 16:20:18;;;;;;;3.13;2.00;;;-2.00;77.60;;;;;;5038359;28;20128;-84
2021/12/04 16:22:49;;;;;;;3.13;2.55;;;-2.00;77.80;;;;;;5036642;28;20204;-84